EGNJ METAR and TAF | Updated Today

EGNJ METAR

Humberside Airport

Observation time: 13 min. ago

EGNJ 061850Z 22009KT CAVOK 04/02 Q1038

Need help? Read our tutorial on how to read METARs or read the parsed version below.

Humberside Airport (EGNJ) METAR

  • Weather conditions on Mon, 06 Feb 2023 18:50:00 +0000 (13 min. ago):
  • Present conditions: Dry
  • Clouds: Clear skies
  • Visibility: Greater than 10 km
  • Wind: 220 degrees at 9 knots
  • Temperature: 4 celsius
  • Dew point: 2 celsius
  • Pressure: 1038 millibars
  • Remarks: None


Useful to know...

EGNJ TAF

Humberside Airport

TAF EGNJ 061654Z 0618/0703 24004KT CAVOK
Observation time: 2:09 hr. ago
Need help? Read our tutorial on how to read TAFs or read the parsed version below.

Parsed version of TAF for Humberside Airport (EGNJ)

  • From 06 February at 18:00 UTC, to day 07 of the month at 03:00 UTC
  • Visibility: Greater than 10 km
  • Wind: 240 degrees at 4